createdAt,value
2023-11-23T00:01:24.245Z,12.17
2023-11-23T00:03:51.530Z,11.90
2023-11-23T00:06:19.403Z,11.57
2023-11-23T00:08:46.855Z,11.70
2023-11-23T00:11:14.239Z,12.50
2023-11-23T00:13:41.884Z,12.33
2023-11-23T00:16:09.521Z,10.80
2023-11-23T00:18:36.878Z,11.83
2023-11-23T00:21:04.519Z,12.30
2023-11-23T00:23:33.091Z,13.20
2023-11-23T00:26:00.505Z,11.43
2023-11-23T00:28:27.992Z,10.27
2023-11-23T00:30:55.538Z,11.87
2023-11-23T00:33:23.181Z,13.27
2023-11-23T00:35:50.724Z,12.30
2023-11-23T00:38:20.167Z,11.83
2023-11-23T00:40:47.898Z,11.07
2023-11-23T00:43:15.808Z,11.77
2023-11-23T00:45:43.243Z,11.80
2023-11-23T00:48:12.026Z,12.90
2023-11-23T00:50:41.057Z,11.50
2023-11-23T00:53:09.501Z,11.67
2023-11-23T00:55:37.919Z,12.00
2023-11-23T00:58:06.090Z,14.10
2023-11-23T01:00:33.546Z,11.40
2023-11-23T01:03:02.499Z,12.73
2023-11-23T01:05:30.779Z,12.60
2023-11-23T01:07:58.315Z,11.50
2023-11-23T01:10:26.407Z,11.90
2023-11-23T01:12:55.671Z,12.40
2023-11-23T01:15:24.087Z,12.27
2023-11-23T01:17:52.093Z,11.97
2023-11-23T01:20:20.258Z,10.97
2023-11-23T01:22:47.749Z,12.30
2023-11-23T01:25:15.836Z,11.20
2023-11-23T01:27:43.509Z,13.10
2023-11-23T01:30:11.382Z,12.70
2023-11-23T01:32:39.510Z,11.73
2023-11-23T01:35:07.914Z,11.70
2023-11-23T01:37:38.066Z,12.57
2023-11-23T01:40:07.275Z,11.50
2023-11-23T01:42:35.602Z,11.90
2023-11-23T01:45:04.681Z,12.47
2023-11-23T01:47:32.693Z,11.33
2023-11-23T01:50:04.704Z,11.50
2023-11-23T01:52:32.919Z,11.77
2023-11-23T01:55:01.152Z,11.90
2023-11-23T01:57:34.820Z,12.10
2023-11-23T02:00:02.908Z,12.57
2023-11-23T02:02:39.785Z,11.27
2023-11-23T02:05:07.501Z,12.70
2023-11-23T02:07:34.918Z,12.27
2023-11-23T02:10:02.366Z,11.77
2023-11-23T02:12:30.139Z,11.50
2023-11-23T02:14:59.765Z,11.43
2023-11-23T02:17:27.096Z,11.20
2023-11-23T02:19:55.916Z,10.90
2023-11-23T02:22:23.725Z,11.60
2023-11-23T02:24:51.152Z,10.70
2023-11-23T02:27:18.692Z,11.70
2023-11-23T02:29:46.331Z,11.37
2023-11-23T02:32:13.782Z,11.50
2023-11-23T02:34:41.619Z,10.70
2023-11-23T02:37:09.432Z,10.70
2023-11-23T02:39:40.754Z,12.17
2023-11-23T02:42:08.325Z,10.60
2023-11-23T02:44:35.957Z,11.37
2023-11-23T02:47:03.982Z,10.73
2023-11-23T02:49:32.357Z,12.60
2023-11-23T02:51:59.799Z,10.37
2023-11-23T02:54:29.124Z,11.23
2023-11-23T02:56:56.438Z,11.23
2023-11-23T02:59:24.159Z,11.03
2023-11-23T03:01:52.028Z,11.90
2023-11-23T03:04:22.082Z,10.60
2023-11-23T03:06:49.479Z,11.73
2023-11-23T03:09:20.984Z,10.20
2023-11-23T03:11:51.122Z,9.80
2023-11-23T03:14:19.333Z,10.60
2023-11-23T03:16:47.388Z,11.83
2023-11-23T03:19:16.560Z,10.30
2023-11-23T03:21:44.184Z,10.20
2023-11-23T03:24:11.716Z,10.17
2023-11-23T03:26:39.866Z,11.13
2023-11-23T03:29:07.711Z,9.90
2023-11-23T03:31:36.014Z,12.90
2023-11-23T03:34:03.838Z,10.80
2023-11-23T03:36:31.713Z,9.70
2023-11-23T03:38:59.251Z,9.77
2023-11-23T03:41:26.431Z,10.00
2023-11-23T03:43:53.734Z,11.10
2023-11-23T03:46:21.690Z,10.50
2023-11-23T03:48:49.396Z,10.40
2023-11-23T03:51:17.351Z,11.17
2023-11-23T03:53:44.906Z,10.30
2023-11-23T03:56:19.459Z,11.03
2023-11-23T03:58:48.601Z,9.90
2023-11-23T04:01:17.404Z,10.70
2023-11-23T04:03:47.605Z,11.33
2023-11-23T04:06:15.187Z,10.30
2023-11-23T04:08:42.794Z,10.87
2023-11-23T04:11:11.480Z,10.00
2023-11-23T04:13:38.894Z,11.47
2023-11-23T04:16:06.623Z,10.60
2023-11-23T04:18:34.226Z,11.53
2023-11-23T04:21:02.211Z,11.83
2023-11-23T04:23:29.750Z,10.20
2023-11-23T04:25:58.196Z,10.57
2023-11-23T04:28:25.646Z,10.97
2023-11-23T04:30:55.095Z,11.07
2023-11-23T04:33:25.378Z,10.30
2023-11-23T04:35:54.058Z,10.83
2023-11-23T04:38:21.484Z,12.07
2023-11-23T04:40:49.808Z,11.23
2023-11-23T04:43:18.115Z,11.00
2023-11-23T04:45:45.786Z,10.60
2023-11-23T04:48:13.314Z,11.70
2023-11-23T04:50:42.506Z,11.30
2023-11-23T04:53:09.901Z,11.23
2023-11-23T04:55:39.972Z,11.03
2023-11-23T04:58:08.251Z,11.43
2023-11-23T05:00:36.858Z,12.00
2023-11-23T05:03:05.517Z,10.93
2023-11-23T05:05:33.326Z,11.73
2023-11-23T05:08:00.672Z,12.17
2023-11-23T05:10:28.640Z,10.60
2023-11-23T05:12:57.123Z,10.37
2023-11-23T05:15:24.900Z,10.90
2023-11-23T05:17:52.808Z,12.63
2023-11-23T05:20:21.342Z,12.20
2023-11-23T05:22:48.597Z,11.17
2023-11-23T05:25:16.502Z,11.33
2023-11-23T05:27:44.062Z,10.97
2023-11-23T05:30:12.958Z,12.23
2023-11-23T05:32:40.666Z,11.03
2023-11-23T05:35:08.923Z,12.03
2023-11-23T05:37:36.885Z,10.30
2023-11-23T05:40:04.585Z,10.40
2023-11-23T05:42:32.719Z,10.43
2023-11-23T05:45:00.363Z,12.10
2023-11-23T05:47:27.833Z,11.13
2023-11-23T05:49:55.332Z,11.20
2023-11-23T05:52:22.939Z,11.23
2023-11-23T05:54:53.141Z,11.47
2023-11-23T05:57:20.776Z,10.60
2023-11-23T05:59:48.206Z,12.13
2023-11-23T06:02:15.528Z,10.23
2023-11-23T06:04:46.526Z,11.80
2023-11-23T06:07:14.101Z,11.80
2023-11-23T06:09:44.152Z,10.73
2023-11-23T06:12:12.431Z,11.00
2023-11-23T06:14:39.809Z,11.40
2023-11-23T06:17:15.667Z,11.60
2023-11-23T06:19:43.241Z,10.20
2023-11-23T06:22:12.426Z,10.73
2023-11-23T06:24:40.727Z,10.90
2023-11-23T06:27:08.456Z,9.93
2023-11-23T06:29:36.114Z,11.23
2023-11-23T06:32:06.609Z,9.80
2023-11-23T06:34:38.403Z,11.43
2023-11-23T06:37:07.980Z,9.83
2023-11-23T06:39:38.481Z,10.87
2023-11-23T06:42:05.884Z,11.10
2023-11-23T06:44:33.468Z,10.47
2023-11-23T06:47:01.665Z,10.80
2023-11-23T06:49:30.248Z,9.67
2023-11-23T06:51:57.439Z,9.80
2023-11-23T06:54:25.433Z,9.47
2023-11-23T06:56:52.899Z,9.73
2023-11-23T06:59:20.152Z,9.70
2023-11-23T07:01:48.787Z,9.43
2023-11-23T07:04:16.814Z,11.50
2023-11-23T07:06:44.201Z,9.90
2023-11-23T07:09:14.947Z,9.53
2023-11-23T07:11:42.810Z,9.83
2023-11-23T07:14:10.323Z,10.40
2023-11-23T07:16:40.063Z,9.30
2023-11-23T07:19:07.302Z,9.33
2023-11-23T07:21:35.034Z,10.03
2023-11-23T07:24:02.285Z,10.90
2023-11-23T07:26:32.030Z,10.37
2023-11-23T07:28:59.229Z,10.73
2023-11-23T07:31:26.477Z,10.20
2023-11-23T07:33:55.499Z,9.70
2023-11-23T07:36:25.080Z,10.80
2023-11-23T07:38:52.384Z,9.67
2023-11-23T07:41:20.468Z,9.57
2023-11-23T07:43:47.725Z,10.07
2023-11-23T07:46:16.581Z,9.70
2023-11-23T07:48:45.691Z,10.10
2023-11-23T07:51:13.000Z,9.60
2023-11-23T07:53:40.172Z,10.30
2023-11-23T07:56:07.475Z,11.23
2023-11-23T07:58:35.454Z,9.80
2023-11-23T08:01:02.715Z,9.53
2023-11-23T08:03:30.003Z,10.13
2023-11-23T08:05:57.318Z,11.53
2023-11-23T08:08:25.884Z,11.03
2023-11-23T08:10:53.070Z,9.80
2023-11-23T08:13:21.297Z,9.70
2023-11-23T08:15:48.596Z,10.43
2023-11-23T08:18:15.901Z,9.80
2023-11-23T08:20:43.408Z,10.63
2023-11-23T08:23:14.480Z,9.13
2023-11-23T08:25:43.492Z,10.00
2023-11-23T08:28:13.488Z,10.80
2023-11-23T08:30:40.790Z,10.60
2023-11-23T08:33:08.523Z,10.00
2023-11-23T08:35:37.947Z,11.20
2023-11-23T08:38:06.712Z,10.77
2023-11-23T08:40:33.942Z,10.20
2023-11-23T08:43:01.229Z,9.97
2023-11-23T08:45:29.446Z,11.27
2023-11-23T08:47:56.854Z,10.43
2023-11-23T08:50:24.221Z,10.67
2023-11-23T08:52:51.691Z,10.30
2023-11-23T08:55:19.930Z,11.07
2023-11-23T08:57:54.011Z,10.83
2023-11-23T09:00:29.860Z,10.10
2023-11-23T09:02:57.274Z,11.40
2023-11-23T09:05:24.786Z,9.93
2023-11-23T09:07:52.195Z,11.03
2023-11-23T09:10:24.344Z,10.37
2023-11-23T09:12:51.863Z,12.50
2023-11-23T09:15:21.011Z,11.70
2023-11-23T09:17:48.861Z,11.00
2023-11-23T09:20:16.131Z,10.83
2023-11-23T09:22:43.354Z,12.50
2023-11-23T09:25:10.579Z,10.27
2023-11-23T09:27:38.009Z,10.83
2023-11-23T09:30:10.253Z,9.93
2023-11-23T09:32:41.464Z,10.43
2023-11-23T09:35:11.233Z,11.43
2023-11-23T09:37:38.797Z,11.20
2023-11-23T09:40:09.855Z,10.70
2023-11-23T09:42:39.824Z,11.30
2023-11-23T09:45:09.061Z,10.73
2023-11-23T09:47:37.661Z,12.17
2023-11-23T09:50:06.075Z,10.90
2023-11-23T09:52:36.143Z,10.83
2023-11-23T09:55:06.190Z,12.47
2023-11-23T09:57:34.479Z,10.93
2023-11-23T10:00:01.829Z,10.90
2023-11-23T10:02:33.754Z,11.17
2023-11-23T10:05:01.681Z,9.77
2023-11-23T10:07:29.933Z,10.90
2023-11-23T10:09:57.636Z,10.37
2023-11-23T10:12:26.436Z,10.40
2023-11-23T10:14:54.369Z,11.13
2023-11-23T10:17:21.966Z,11.00
2023-11-23T10:19:50.272Z,11.43
2023-11-23T10:22:19.555Z,11.73
2023-11-23T10:24:50.275Z,10.37
2023-11-23T10:27:22.390Z,11.47
2023-11-23T10:29:49.635Z,12.63
2023-11-23T10:32:17.548Z,11.00
2023-11-23T10:34:44.931Z,10.93
2023-11-23T10:37:15.058Z,12.10
2023-11-23T10:39:42.715Z,11.50
2023-11-23T10:42:10.296Z,11.80
2023-11-23T10:44:39.056Z,13.47
2023-11-23T10:47:08.513Z,10.63
2023-11-23T10:49:38.649Z,11.33
2023-11-23T10:52:06.079Z,11.10
2023-11-23T10:54:33.683Z,12.00
2023-11-23T10:57:03.568Z,11.17
2023-11-23T10:59:32.170Z,11.93
2023-11-23T11:02:02.508Z,12.37
2023-11-23T11:04:30.689Z,12.60
2023-11-23T11:06:58.866Z,11.53
2023-11-23T11:09:30.041Z,11.63
2023-11-23T11:12:01.426Z,11.63
2023-11-23T11:14:35.543Z,11.10
2023-11-23T11:17:06.946Z,11.97
2023-11-23T11:19:46.956Z,10.80
2023-11-23T11:22:15.052Z,11.73
2023-11-23T11:24:43.029Z,11.03
2023-11-23T11:27:11.232Z,11.40
2023-11-23T11:29:38.552Z,10.77
2023-11-23T11:32:08.765Z,11.30
2023-11-23T11:34:39.365Z,11.20
2023-11-23T11:37:08.277Z,10.73
2023-11-23T11:39:40.575Z,11.83
2023-11-23T11:42:11.160Z,11.57
2023-11-23T11:44:44.459Z,10.57
2023-11-23T11:47:13.316Z,11.43
2023-11-23T11:49:44.017Z,10.43
2023-11-23T11:52:13.391Z,11.90
2023-11-23T11:54:41.035Z,10.23
2023-11-23T11:57:09.479Z,10.40
2023-11-23T11:59:38.747Z,10.40
2023-11-23T12:02:07.093Z,11.17
2023-11-23T12:04:39.906Z,10.10
2023-11-23T12:07:17.906Z,10.37
2023-11-23T12:09:47.723Z,11.90
2023-11-23T12:12:22.172Z,11.40
2023-11-23T12:14:49.429Z,11.20
2023-11-23T12:17:16.963Z,12.67
2023-11-23T12:19:52.388Z,12.53
2023-11-23T12:22:24.215Z,11.07
2023-11-23T12:24:52.403Z,12.67
2023-11-23T12:27:24.333Z,11.70
2023-11-23T12:29:53.275Z,11.77
2023-11-23T12:32:20.744Z,11.80
2023-11-23T12:34:48.000Z,11.40
2023-11-23T12:37:16.010Z,11.33
2023-11-23T12:39:43.636Z,9.53
2023-11-23T12:42:10.931Z,11.17
2023-11-23T12:44:38.479Z,11.80
2023-11-23T12:47:07.986Z,12.10
2023-11-23T12:49:36.404Z,11.37
2023-11-23T12:52:03.953Z,11.53
2023-11-23T12:54:31.584Z,12.17
2023-11-23T12:56:59.308Z,13.17
2023-11-23T12:59:26.538Z,13.17
2023-11-23T13:01:56.684Z,13.23
2023-11-23T13:04:25.687Z,11.77
2023-11-23T13:06:53.556Z,13.23
2023-11-23T13:09:24.966Z,12.17
2023-11-23T13:11:53.462Z,15.07
2023-11-23T13:14:22.079Z,12.23
2023-11-23T13:16:50.722Z,12.73
2023-11-23T13:19:27.008Z,13.03
2023-11-23T13:22:02.591Z,11.87
2023-11-23T13:24:30.701Z,13.00
2023-11-23T13:26:58.291Z,14.10
2023-11-23T13:29:27.054Z,13.43
2023-11-23T13:31:58.623Z,11.90
2023-11-23T13:34:27.134Z,11.03
2023-11-23T13:36:55.042Z,13.27
2023-11-23T13:39:22.744Z,13.63
2023-11-23T13:41:50.948Z,13.70
2023-11-23T13:44:19.490Z,12.47
2023-11-23T13:46:46.926Z,13.70
2023-11-23T13:49:17.698Z,12.07
2023-11-23T13:51:46.117Z,15.37
2023-11-23T13:54:14.552Z,12.97
2023-11-23T13:56:43.711Z,13.63
2023-11-23T13:59:12.334Z,11.83
2023-11-23T14:01:40.059Z,13.13
2023-11-23T14:04:07.946Z,13.47
2023-11-23T14:06:35.706Z,12.60
2023-11-23T14:09:04.722Z,12.80
2023-11-23T14:11:32.102Z,13.50
2023-11-23T14:14:00.439Z,12.67
2023-11-23T14:16:28.575Z,13.47
2023-11-23T14:18:55.998Z,13.47
2023-11-23T14:21:23.408Z,14.10
2023-11-23T14:23:51.174Z,13.10
2023-11-23T14:26:21.321Z,12.90
2023-11-23T14:28:50.184Z,12.70
2023-11-23T14:31:20.045Z,12.50
2023-11-23T14:33:47.498Z,12.13
2023-11-23T14:36:15.368Z,12.30
2023-11-23T14:38:42.729Z,12.30
2023-11-23T14:41:10.341Z,11.97
2023-11-23T14:43:37.578Z,11.83
2023-11-23T14:46:05.155Z,12.40
2023-11-23T14:48:32.495Z,12.83
2023-11-23T14:51:00.481Z,12.90
2023-11-23T14:53:28.544Z,12.10
2023-11-23T14:56:01.731Z,13.60
2023-11-23T14:58:29.595Z,12.33
2023-11-23T15:00:56.969Z,13.07
2023-11-23T15:03:24.370Z,12.20
2023-11-23T15:05:51.706Z,12.97
2023-11-23T15:08:18.928Z,13.53
2023-11-23T15:10:46.818Z,12.10
2023-11-23T15:13:18.772Z,13.50
2023-11-23T15:15:52.407Z,12.40
2023-11-23T15:18:20.808Z,12.67
2023-11-23T15:20:48.160Z,12.60
2023-11-23T15:23:16.377Z,12.60
2023-11-23T15:25:46.901Z,12.43
2023-11-23T15:28:14.755Z,12.43
2023-11-23T15:30:42.356Z,12.60
2023-11-23T15:33:11.412Z,12.67
2023-11-23T15:35:42.157Z,12.27
2023-11-23T15:38:09.418Z,12.50
2023-11-23T15:40:37.043Z,12.80
2023-11-23T15:43:04.325Z,12.80
2023-11-23T15:45:32.095Z,12.70
2023-11-23T15:47:59.675Z,11.80
2023-11-23T15:50:28.656Z,13.17
2023-11-23T15:52:58.289Z,12.80
2023-11-23T15:55:26.023Z,12.13
2023-11-23T15:57:53.603Z,13.10
2023-11-23T16:00:25.284Z,12.37
2023-11-23T16:02:54.966Z,13.70
2023-11-23T16:05:27.357Z,14.73
2023-11-23T16:07:55.031Z,11.90
2023-11-23T16:10:22.439Z,13.43
2023-11-23T16:12:49.670Z,13.40
2023-11-23T16:15:18.706Z,13.57
2023-11-23T16:17:47.495Z,13.50
2023-11-23T16:20:19.698Z,13.00
2023-11-23T16:22:47.204Z,14.07
2023-11-23T16:25:16.763Z,13.10
2023-11-23T16:27:44.263Z,14.50
2023-11-23T16:30:14.294Z,13.97
2023-11-23T16:32:42.894Z,14.93
2023-11-23T16:35:13.300Z,13.57
2023-11-23T16:37:40.660Z,13.87
2023-11-23T16:40:11.706Z,14.00
2023-11-23T16:42:41.525Z,14.63
2023-11-23T16:45:10.685Z,15.80
2023-11-23T16:47:38.025Z,14.97
2023-11-23T16:50:05.458Z,13.70
2023-11-23T16:52:36.211Z,13.60
2023-11-23T16:55:04.012Z,14.17
2023-11-23T16:57:31.271Z,14.80
2023-11-23T16:59:58.441Z,15.43
2023-11-23T17:02:26.235Z,15.67
2023-11-23T17:04:55.534Z,14.53
2023-11-23T17:07:23.760Z,14.90
2023-11-23T17:09:53.926Z,14.40
2023-11-23T17:12:21.298Z,13.97
2023-11-23T17:14:49.089Z,15.07
2023-11-23T17:17:16.276Z,14.93
2023-11-23T17:19:43.520Z,17.80
2023-11-23T17:22:11.877Z,14.97
2023-11-23T17:24:40.687Z,14.87
2023-11-23T17:27:09.498Z,14.37
2023-11-23T17:29:37.058Z,13.47
2023-11-23T17:32:06.564Z,15.47
2023-11-23T17:34:35.227Z,16.87
2023-11-23T17:37:02.797Z,15.77
2023-11-23T17:39:31.222Z,14.23
2023-11-23T17:41:58.978Z,15.47
2023-11-23T17:44:27.836Z,14.37
2023-11-23T17:46:55.345Z,15.13
2023-11-23T17:49:25.151Z,16.30
2023-11-23T17:51:54.646Z,14.90
2023-11-23T17:54:22.021Z,14.77
2023-11-23T17:56:49.294Z,15.47
2023-11-23T17:59:26.238Z,15.47
2023-11-23T18:02:04.552Z,14.77
2023-11-23T18:04:31.963Z,14.97
2023-11-23T18:06:59.157Z,14.20
2023-11-23T18:09:26.674Z,14.47
2023-11-23T18:11:53.896Z,14.70
2023-11-23T18:14:21.693Z,14.60
2023-11-23T18:16:49.285Z,14.50
2023-11-23T18:19:17.100Z,14.77
2023-11-23T18:21:45.323Z,14.00
2023-11-23T18:24:13.119Z,15.13
2023-11-23T18:26:41.153Z,16.07
2023-11-23T18:29:09.793Z,16.17
2023-11-23T18:31:38.816Z,15.10
2023-11-23T18:34:09.064Z,14.53
2023-11-23T18:36:36.377Z,14.90
2023-11-23T18:39:10.481Z,16.10
2023-11-23T18:41:38.341Z,16.47
2023-11-23T18:44:09.000Z,16.07
2023-11-23T18:46:37.507Z,15.00
2023-11-23T18:49:05.887Z,16.47
2023-11-23T18:51:33.294Z,15.87
2023-11-23T18:54:01.991Z,15.40
2023-11-23T18:56:29.706Z,16.70
2023-11-23T18:58:56.990Z,17.87
2023-11-23T19:01:25.671Z,18.53
2023-11-23T19:03:53.185Z,16.80
2023-11-23T19:06:23.155Z,17.13
2023-11-23T19:08:51.272Z,17.97
2023-11-23T19:11:20.128Z,17.33
2023-11-23T19:13:48.388Z,17.43
2023-11-23T19:16:15.638Z,17.90
2023-11-23T19:18:44.063Z,16.53
2023-11-23T19:21:13.658Z,18.10
2023-11-23T19:23:42.182Z,18.43
2023-11-23T19:26:09.609Z,15.60
2023-11-23T19:28:37.004Z,19.50
2023-11-23T19:31:07.482Z,17.80
2023-11-23T19:33:37.136Z,18.47
2023-11-23T19:36:04.733Z,17.30
2023-11-23T19:38:34.531Z,17.40
2023-11-23T19:41:04.576Z,17.40
2023-11-23T19:43:31.945Z,16.30
2023-11-23T19:46:00.696Z,16.73
2023-11-23T19:48:29.844Z,17.33
2023-11-23T19:50:57.245Z,17.13
2023-11-23T19:53:25.678Z,17.87
2023-11-23T19:55:52.887Z,17.70
2023-11-23T19:58:20.059Z,17.70
2023-11-23T20:00:47.255Z,17.50
2023-11-23T20:03:14.469Z,17.27
2023-11-23T20:05:42.114Z,17.27
2023-11-23T20:08:11.558Z,16.30
2023-11-23T20:10:38.826Z,17.10
2023-11-23T20:13:06.147Z,15.73
2023-11-23T20:15:33.829Z,18.20
2023-11-23T20:18:03.778Z,16.50
2023-11-23T20:20:31.544Z,15.63
2023-11-23T20:22:58.856Z,16.93
2023-11-23T20:25:26.953Z,14.80
2023-11-23T20:27:54.332Z,15.53
2023-11-23T20:30:22.616Z,15.27
2023-11-23T20:32:51.269Z,15.60
2023-11-23T20:35:19.601Z,16.00
2023-11-23T20:37:46.774Z,16.10
2023-11-23T20:40:14.063Z,15.10
2023-11-23T20:42:41.335Z,14.30
2023-11-23T20:45:09.193Z,14.53
2023-11-23T20:47:36.488Z,14.83
2023-11-23T20:50:06.284Z,14.90
2023-11-23T20:52:34.068Z,14.40
2023-11-23T20:55:02.759Z,14.00
2023-11-23T20:57:31.406Z,13.60
2023-11-23T20:59:59.116Z,13.10
2023-11-23T21:02:27.551Z,14.07
2023-11-23T21:04:55.461Z,13.30
2023-11-23T21:07:23.375Z,12.47
2023-11-23T21:09:50.849Z,13.10
2023-11-23T21:12:25.104Z,13.47
2023-11-23T21:14:55.437Z,12.60
2023-11-23T21:17:23.119Z,13.17
2023-11-23T21:19:50.431Z,12.87
2023-11-23T21:22:17.739Z,12.37
2023-11-23T21:24:45.627Z,12.70
2023-11-23T21:27:13.111Z,12.70
2023-11-23T21:29:40.422Z,12.77
2023-11-23T21:32:09.045Z,12.20
2023-11-23T21:34:36.240Z,12.03
2023-11-23T21:37:06.556Z,13.37
2023-11-23T21:39:33.853Z,12.40
2023-11-23T21:42:02.374Z,13.67
2023-11-23T21:44:30.101Z,14.57
2023-11-23T21:46:59.485Z,13.27
2023-11-23T21:49:27.377Z,12.00
2023-11-23T21:51:55.119Z,12.50
2023-11-23T21:54:22.367Z,13.93
2023-11-23T21:56:50.489Z,12.53
2023-11-23T21:59:17.695Z,13.07
2023-11-23T22:01:45.105Z,12.37
2023-11-23T22:04:13.352Z,15.30
2023-11-23T22:06:40.610Z,13.47
2023-11-23T22:09:07.881Z,13.50
2023-11-23T22:11:35.425Z,14.23
2023-11-23T22:14:04.179Z,13.67
2023-11-23T22:16:32.583Z,14.23
2023-11-23T22:18:59.934Z,14.20
2023-11-23T22:21:27.390Z,16.30
2023-11-23T22:23:57.669Z,15.43
2023-11-23T22:26:27.108Z,14.57
2023-11-23T22:28:54.404Z,15.80
2023-11-23T22:31:22.674Z,14.23
2023-11-23T22:33:50.216Z,15.23
2023-11-23T22:36:20.010Z,13.93
2023-11-23T22:38:47.968Z,13.80
2023-11-23T22:41:15.805Z,14.53
2023-11-23T22:43:43.991Z,13.50
2023-11-23T22:46:11.969Z,13.80
2023-11-23T22:48:39.954Z,14.83
2023-11-23T22:51:07.764Z,13.27
2023-11-23T22:53:35.025Z,11.97
2023-11-23T22:56:02.293Z,11.70
2023-11-23T22:58:29.465Z,13.03
2023-11-23T23:00:57.921Z,12.07
2023-11-23T23:03:25.345Z,11.67
2023-11-23T23:05:52.581Z,10.33
2023-11-23T23:08:20.174Z,11.43
2023-11-23T23:10:48.568Z,10.90
2023-11-23T23:13:17.970Z,9.83
2023-11-23T23:15:45.284Z,10.30
2023-11-23T23:18:15.479Z,10.00
2023-11-23T23:20:47.987Z,9.50
2023-11-23T23:23:16.121Z,8.90
2023-11-23T23:25:45.486Z,8.10
2023-11-23T23:28:25.640Z,8.60
2023-11-23T23:30:57.968Z,9.60
2023-11-23T23:33:25.458Z,8.33
2023-11-23T23:35:53.774Z,9.10
2023-11-23T23:38:21.456Z,8.17
2023-11-23T23:40:50.945Z,8.73
2023-11-23T23:43:18.549Z,7.97
2023-11-23T23:45:46.153Z,8.50
2023-11-23T23:48:13.471Z,7.00
2023-11-23T23:50:41.563Z,8.70
2023-11-23T23:53:08.995Z,7.33
2023-11-23T23:55:36.335Z,7.33
2023-11-23T23:58:05.607Z,6.23
